createdAt,value
2022-08-08T00:00:53.090Z,2.67
2022-08-08T00:15:57.560Z,2.85
2022-08-08T00:30:45.261Z,2.65
2022-08-08T00:46:02.117Z,2.67
2022-08-08T01:01:36.401Z,2.83
2022-08-08T01:16:59.167Z,2.58
2022-08-08T01:32:26.985Z,3.10
2022-08-08T01:48:14.226Z,2.90
2022-08-08T02:03:57.766Z,2.65
2022-08-08T02:18:50.986Z,3.40
2022-08-08T02:34:09.265Z,4.65
2022-08-08T02:49:48.226Z,3.47
2022-08-08T03:05:03.008Z,3.33
2022-08-08T03:20:04.519Z,3.60
2022-08-08T03:35:13.025Z,2.87
2022-08-08T03:50:24.857Z,4.33
2022-08-08T04:05:35.913Z,5.15
2022-08-08T04:20:42.845Z,4.12
2022-08-08T04:35:51.409Z,3.98
2022-08-08T04:50:54.887Z,5.03
2022-08-08T05:06:13.046Z,4.90
2022-08-08T05:21:14.778Z,4.28
2022-08-08T05:36:28.099Z,5.60
2022-08-08T05:51:48.120Z,4.80
2022-08-08T06:06:48.150Z,3.70
2022-08-08T06:21:57.331Z,2.95
2022-08-08T06:37:24.180Z,2.27
2022-08-08T07:07:18.812Z,2.65
2022-08-08T07:22:28.493Z,1.50
2022-08-08T07:37:56.052Z,1.05
2022-08-08T07:52:45.357Z,1.65
2022-08-08T08:07:54.926Z,1.20
2022-08-08T08:23:01.604Z,1.15
2022-08-08T08:38:17.230Z,1.17
2022-08-08T08:53:28.305Z,1.50
2022-08-08T09:08:28.451Z,2.00
2022-08-08T09:23:38.324Z,0.80
2022-08-08T09:38:56.270Z,2.27
2022-08-08T09:54:11.953Z,0.67
2022-08-08T10:09:11.932Z,0.97
2022-08-08T10:24:29.521Z,0.70
2022-08-08T10:39:31.745Z,0.97
2022-08-08T10:54:40.739Z,1.40
2022-08-08T11:09:48.606Z,0.70
2022-08-08T11:24:56.748Z,0.77
2022-08-08T11:40:07.483Z,0.80
2022-08-08T11:55:22.750Z,1.20
2022-08-08T12:10:30.362Z,0.80
2022-08-08T12:25:38.388Z,0.50
2022-08-08T12:40:56.911Z,0.70
2022-08-08T12:56:08.648Z,0.80
2022-08-08T13:11:04.588Z,1.00
2022-08-08T13:26:14.811Z,1.27
2022-08-08T13:41:18.893Z,0.70
2022-08-08T13:56:59.584Z,0.63
2022-08-08T14:11:48.742Z,5.70
2022-08-08T14:26:55.583Z,0.57
2022-08-08T14:42:02.674Z,1.20
2022-08-08T14:57:07.642Z,0.73
2022-08-08T15:12:13.449Z,0.57
2022-08-08T15:28:04.777Z,0.70
2022-08-08T15:42:32.646Z,0.90
2022-08-08T15:57:39.922Z,1.27
2022-08-08T16:13:20.913Z,0.60
2022-08-08T16:27:58.073Z,1.10
2022-08-08T16:42:58.175Z,1.10
2022-08-08T16:58:14.387Z,1.00
2022-08-08T17:13:10.176Z,1.20
2022-08-08T17:28:17.722Z,1.10
2022-08-08T17:43:24.392Z,1.20
2022-08-08T17:58:30.960Z,2.10
2022-08-08T18:13:41.847Z,2.00
2022-08-08T18:28:54.645Z,2.70
2022-08-08T18:43:51.235Z,16.32
2022-08-08T18:58:57.762Z,8.60
2022-08-08T19:14:02.808Z,5.87
2022-08-08T19:29:09.485Z,10.30
2022-08-08T19:44:43.123Z,5.03
2022-08-08T19:59:22.485Z,6.67
2022-08-08T20:14:34.177Z,6.50
2022-08-08T20:29:56.051Z,13.13
2022-08-08T20:44:45.105Z,6.67
2022-08-08T20:59:50.477Z,3.30
2022-08-08T21:14:55.491Z,2.65
2022-08-08T21:30:05.823Z,3.00
2022-08-08T21:45:44.410Z,2.75
2022-08-08T22:15:20.161Z,3.55
2022-08-08T22:30:29.688Z,2.67
2022-08-08T22:45:32.484Z,3.03
2022-08-08T23:00:40.790Z,2.42
2022-08-08T23:16:39.725Z,5.12
2022-08-08T23:30:53.023Z,3.15
2022-08-08T23:49:08.546Z,3.10
